createdAt,value
2022-10-16T00:00:35.404Z,15.82
2022-10-16T00:03:02.065Z,15.82
2022-10-16T00:05:28.913Z,15.83
2022-10-16T00:07:57.463Z,15.84
2022-10-16T00:10:24.377Z,15.86
2022-10-16T00:12:50.858Z,15.87
2022-10-16T00:15:18.824Z,15.89
2022-10-16T00:17:45.248Z,15.88
2022-10-16T00:20:11.698Z,15.90
2022-10-16T00:22:38.176Z,15.91
2022-10-16T00:25:05.180Z,15.91
2022-10-16T00:27:31.656Z,15.92
2022-10-16T00:32:27.396Z,15.92
2022-10-16T00:34:54.206Z,15.92
2022-10-16T00:37:20.677Z,15.92
2022-10-16T00:39:47.390Z,15.93
2022-10-16T00:42:16.214Z,15.94
2022-10-16T00:44:46.638Z,15.92
2022-10-16T00:47:18.594Z,15.93
2022-10-16T00:49:48.173Z,15.93
2022-10-16T00:52:15.571Z,15.94
2022-10-16T00:54:42.198Z,15.95
2022-10-16T00:57:08.890Z,15.96
2022-10-16T00:59:39.058Z,15.96
2022-10-16T01:02:06.953Z,15.97
2022-10-16T01:04:38.077Z,15.98
2022-10-16T01:07:13.023Z,15.98
2022-10-16T01:09:51.643Z,15.99
2022-10-16T01:12:28.933Z,16.00
2022-10-16T01:15:00.449Z,16.01
2022-10-16T01:17:33.595Z,16.03
2022-10-16T01:20:15.642Z,16.04
2022-10-16T01:22:57.982Z,16.05
2022-10-16T01:25:33.628Z,16.04
2022-10-16T01:28:03.481Z,16.03
2022-10-16T01:30:33.111Z,16.01
2022-10-16T01:33:04.448Z,16.01
2022-10-16T01:35:36.672Z,15.99
2022-10-16T01:38:07.881Z,15.98
2022-10-16T01:40:37.072Z,15.99
2022-10-16T01:43:10.614Z,16.00
2022-10-16T01:45:37.493Z,16.01
2022-10-16T01:48:06.597Z,16.02
2022-10-16T01:50:36.451Z,16.01
2022-10-16T01:53:05.776Z,16.01
2022-10-16T01:55:39.026Z,16.00
2022-10-16T01:58:11.092Z,16.01
2022-10-16T02:00:40.376Z,16.02
2022-10-16T02:03:08.080Z,16.03
2022-10-16T02:05:41.352Z,16.04
2022-10-16T02:08:08.028Z,16.03
2022-10-16T02:10:36.793Z,16.04
2022-10-16T02:13:10.309Z,16.05
2022-10-16T02:15:37.636Z,16.03
2022-10-16T02:18:06.021Z,16.03
2022-10-16T02:20:38.750Z,16.01
2022-10-16T02:23:07.742Z,16.03
2022-10-16T02:25:41.011Z,16.00
2022-10-16T02:28:15.537Z,15.99
2022-10-16T02:30:45.537Z,15.99
2022-10-16T02:33:14.524Z,15.99
2022-10-16T02:35:42.811Z,15.98
2022-10-16T02:40:42.730Z,15.96
2022-10-16T02:43:11.311Z,15.93
2022-10-16T02:45:38.749Z,15.90
2022-10-16T02:48:05.674Z,15.88
2022-10-16T02:50:33.124Z,15.86
2022-10-16T02:53:00.007Z,15.86
2022-10-16T02:55:26.705Z,15.84
2022-10-16T02:57:53.163Z,15.83
2022-10-16T03:00:21.633Z,15.80
2022-10-16T03:02:48.150Z,15.78
2022-10-16T03:05:14.994Z,15.74
2022-10-16T03:07:41.459Z,15.71
2022-10-16T03:10:08.869Z,15.69
2022-10-16T03:12:35.418Z,15.67
2022-10-16T03:15:02.087Z,15.65
2022-10-16T03:17:29.969Z,15.62
2022-10-16T03:19:56.396Z,15.60
2022-10-16T03:22:22.918Z,15.58
2022-10-16T03:24:49.365Z,15.55
2022-10-16T03:27:15.796Z,15.53
2022-10-16T03:29:42.265Z,15.49
2022-10-16T03:32:08.742Z,15.47
2022-10-16T03:34:36.478Z,15.44
2022-10-16T03:37:03.308Z,15.41
2022-10-16T03:39:29.817Z,15.39
2022-10-16T03:41:56.257Z,15.36
2022-10-16T03:44:22.724Z,15.34
2022-10-16T03:46:49.161Z,15.32
2022-10-16T03:49:15.642Z,15.31
2022-10-16T03:51:43.421Z,15.30
2022-10-16T03:54:10.521Z,15.29
2022-10-16T03:56:36.968Z,15.27
2022-10-16T03:59:03.429Z,15.25
2022-10-16T04:01:29.847Z,15.25
2022-10-16T04:03:56.261Z,15.24
2022-10-16T04:06:22.768Z,15.23
2022-10-16T04:08:50.542Z,15.22
2022-10-16T04:11:16.950Z,15.20
2022-10-16T04:13:43.372Z,15.19
2022-10-16T04:16:09.797Z,15.18
2022-10-16T04:18:36.228Z,15.17
2022-10-16T04:21:04.585Z,15.15
2022-10-16T04:23:31.322Z,15.14
2022-10-16T04:25:59.404Z,15.13
2022-10-16T04:28:25.905Z,15.12
2022-10-16T04:30:52.344Z,15.11
2022-10-16T04:33:18.782Z,15.09
2022-10-16T04:35:45.240Z,15.09
2022-10-16T04:38:11.686Z,15.07
2022-10-16T04:40:38.235Z,15.07
2022-10-16T04:43:06.727Z,15.05
2022-10-16T04:45:33.195Z,15.02
2022-10-16T04:48:00.440Z,15.00
2022-10-16T04:50:27.011Z,14.97
2022-10-16T04:52:53.657Z,14.96
2022-10-16T04:55:20.099Z,14.93
2022-10-16T04:57:46.641Z,14.91
2022-10-16T05:00:14.836Z,14.89
2022-10-16T05:02:41.324Z,14.85
2022-10-16T05:05:08.168Z,14.85
2022-10-16T05:07:34.635Z,14.83
2022-10-16T05:10:01.023Z,14.81
2022-10-16T05:12:27.628Z,14.81
2022-10-16T05:14:54.022Z,14.78
2022-10-16T05:17:21.833Z,14.77
2022-10-16T05:19:48.254Z,14.74
2022-10-16T05:22:14.722Z,14.73
2022-10-16T05:24:41.109Z,14.71
2022-10-16T05:27:07.612Z,14.69
2022-10-16T05:29:34.062Z,14.66
2022-10-16T05:32:00.481Z,14.63
2022-10-16T05:34:28.269Z,14.62
2022-10-16T05:36:54.684Z,14.60
2022-10-16T05:39:21.206Z,14.60
2022-10-16T05:41:47.673Z,14.60
2022-10-16T05:44:14.131Z,14.61
2022-10-16T05:46:40.572Z,14.61
2022-10-16T05:49:07.023Z,14.63
2022-10-16T05:51:34.853Z,14.66
2022-10-16T05:54:01.282Z,14.66
2022-10-16T05:56:27.882Z,14.68
2022-10-16T05:58:54.368Z,14.71
2022-10-16T06:01:21.067Z,14.71
2022-10-16T06:03:47.683Z,14.72
2022-10-16T06:06:16.048Z,14.75
2022-10-16T06:08:45.382Z,14.77
2022-10-16T06:11:13.658Z,14.76
2022-10-16T06:13:40.624Z,14.79
2022-10-16T06:16:07.833Z,14.82
2022-10-16T06:18:34.394Z,14.85
2022-10-16T06:21:00.921Z,14.88
2022-10-16T06:23:29.469Z,14.91
2022-10-16T06:26:05.503Z,14.93
2022-10-16T06:28:31.953Z,14.96
2022-10-16T06:31:04.112Z,14.98
2022-10-16T06:33:33.999Z,15.02
2022-10-16T06:36:04.633Z,15.06
2022-10-16T06:38:31.944Z,15.10
2022-10-16T06:40:59.796Z,15.16
2022-10-16T06:43:26.957Z,15.22
2022-10-16T06:45:53.573Z,15.27
2022-10-16T06:48:20.641Z,15.34
2022-10-16T06:50:56.297Z,15.43
2022-10-16T06:53:22.866Z,15.50
2022-10-16T06:55:49.318Z,15.58
2022-10-16T06:58:17.170Z,15.66
2022-10-16T07:00:43.654Z,15.75
2022-10-16T07:03:10.235Z,15.83
2022-10-16T07:05:38.546Z,15.90
2022-10-16T07:08:05.236Z,15.98
2022-10-16T07:10:31.769Z,16.03
2022-10-16T07:12:58.391Z,16.08
2022-10-16T07:15:27.033Z,16.13
2022-10-16T07:17:53.488Z,16.16
2022-10-16T07:20:20.572Z,16.22
2022-10-16T07:22:47.148Z,16.28
2022-10-16T07:25:13.720Z,16.35
2022-10-16T07:27:40.270Z,16.42
2022-10-16T07:30:09.137Z,16.49
2022-10-16T07:32:37.228Z,16.56
2022-10-16T07:35:03.908Z,16.62
2022-10-16T07:37:30.569Z,16.67
2022-10-16T07:39:56.994Z,16.74
2022-10-16T07:42:23.422Z,16.78
2022-10-16T07:44:49.908Z,16.84
2022-10-16T07:47:16.559Z,16.88
2022-10-16T07:49:44.429Z,16.91
2022-10-16T07:52:10.849Z,16.94
2022-10-16T07:54:37.281Z,16.96
2022-10-16T07:57:03.747Z,16.99
2022-10-16T07:59:30.196Z,17.01
2022-10-16T08:01:56.748Z,17.03
2022-10-16T08:04:23.252Z,17.05
2022-10-16T08:06:51.057Z,17.08
2022-10-16T08:09:17.524Z,17.10
2022-10-16T08:11:43.980Z,17.13
2022-10-16T08:14:10.365Z,17.17
2022-10-16T08:16:37.048Z,17.18
2022-10-16T08:19:03.715Z,17.21
2022-10-16T08:21:30.197Z,17.23
2022-10-16T08:23:58.659Z,17.25
2022-10-16T08:26:26.241Z,17.28
2022-10-16T08:28:52.832Z,17.32
2022-10-16T08:31:19.619Z,17.36
2022-10-16T08:33:46.132Z,17.41
2022-10-16T08:36:12.791Z,17.46
2022-10-16T08:38:39.685Z,17.52
2022-10-16T08:41:28.603Z,17.57
2022-10-16T08:44:19.295Z,17.62
2022-10-16T08:46:54.119Z,17.67
2022-10-16T08:49:20.684Z,17.74
2022-10-16T08:51:47.202Z,17.79
2022-10-16T08:54:27.102Z,17.84
2022-10-16T08:56:56.591Z,17.90
2022-10-16T08:59:23.053Z,17.99
2022-10-16T09:01:51.869Z,18.07
2022-10-16T09:04:56.342Z,18.16
2022-10-16T09:07:31.979Z,18.26
2022-10-16T09:10:13.551Z,18.37
2022-10-16T09:12:47.459Z,18.44
2022-10-16T09:15:24.622Z,18.51
2022-10-16T09:18:00.766Z,18.57
2022-10-16T09:20:33.746Z,18.60
2022-10-16T09:23:15.408Z,18.63
2022-10-16T09:25:45.410Z,18.65
2022-10-16T09:28:13.245Z,18.67
2022-10-16T09:30:40.141Z,18.66
2022-10-16T09:33:08.644Z,18.67
2022-10-16T09:35:39.079Z,18.70
2022-10-16T09:38:06.051Z,18.74
2022-10-16T09:40:34.472Z,18.78
2022-10-16T09:43:14.214Z,18.82
2022-10-16T09:45:42.161Z,18.87
2022-10-16T09:48:13.339Z,18.94
2022-10-16T09:50:40.134Z,19.02
2022-10-16T09:53:11.527Z,19.12
2022-10-16T09:55:48.978Z,19.24
2022-10-16T09:58:15.461Z,19.38
2022-10-16T10:00:49.561Z,19.49
2022-10-16T10:03:44.737Z,19.56
2022-10-16T10:06:21.862Z,19.59
2022-10-16T10:09:16.701Z,19.55
2022-10-16T10:11:47.984Z,19.53
2022-10-16T10:14:27.664Z,19.51
2022-10-16T10:17:18.200Z,19.52
2022-10-16T10:19:50.755Z,19.54
2022-10-16T10:22:20.468Z,19.58
2022-10-16T10:24:57.293Z,19.64
2022-10-16T10:27:32.421Z,19.67
2022-10-16T10:30:05.393Z,19.74
2022-10-16T10:32:40.607Z,19.79
2022-10-16T10:35:17.484Z,19.85
2022-10-16T10:37:59.864Z,19.94
2022-10-16T10:40:38.771Z,20.07
2022-10-16T10:43:14.319Z,20.23
2022-10-16T10:45:44.466Z,20.41
2022-10-16T10:48:25.595Z,20.58
2022-10-16T10:50:58.518Z,20.69
2022-10-16T10:53:40.590Z,20.75
2022-10-16T10:56:16.829Z,20.77
2022-10-16T10:59:02.860Z,20.79
2022-10-16T11:01:37.787Z,20.73
2022-10-16T11:04:33.901Z,20.74
2022-10-16T11:07:04.995Z,20.76
2022-10-16T11:09:35.768Z,20.76
2022-10-16T11:12:08.936Z,20.76
2022-10-16T11:14:41.730Z,20.74
2022-10-16T11:17:12.906Z,20.74
2022-10-16T11:19:49.017Z,20.71
2022-10-16T11:22:20.259Z,20.69
2022-10-16T11:24:51.898Z,20.67
2022-10-16T11:27:24.711Z,20.71
2022-10-16T11:29:58.959Z,20.77
2022-10-16T11:32:32.874Z,20.84
2022-10-16T11:35:12.301Z,20.90
2022-10-16T11:37:43.865Z,20.98
2022-10-16T11:40:21.261Z,21.00
2022-10-16T11:42:52.778Z,21.05
2022-10-16T11:45:30.752Z,21.09
2022-10-16T11:48:02.117Z,21.12
2022-10-16T11:50:36.794Z,21.15
2022-10-16T11:53:12.465Z,21.21
2022-10-16T11:55:44.721Z,21.29
2022-10-16T11:58:22.902Z,21.34
2022-10-16T12:00:58.369Z,21.38
2022-10-16T12:03:30.276Z,21.41
2022-10-16T12:06:19.935Z,21.43
2022-10-16T12:08:47.224Z,21.44
2022-10-16T12:11:31.491Z,21.46
2022-10-16T12:14:06.671Z,21.50
2022-10-16T12:16:33.273Z,21.51
2022-10-16T12:19:14.862Z,21.53
2022-10-16T12:21:43.607Z,21.60
2022-10-16T12:24:22.496Z,21.61
2022-10-16T12:26:51.782Z,21.68
2022-10-16T12:29:33.605Z,21.69
2022-10-16T12:32:00.802Z,21.73
2022-10-16T12:34:30.211Z,21.77
2022-10-16T12:37:10.248Z,21.80
2022-10-16T12:39:41.364Z,21.77
2022-10-16T12:42:22.894Z,21.72
2022-10-16T12:44:50.137Z,21.67
2022-10-16T12:47:35.773Z,21.64
2022-10-16T12:50:05.749Z,21.67
2022-10-16T12:52:38.071Z,21.69
2022-10-16T12:55:06.873Z,21.68
2022-10-16T12:57:51.195Z,21.67
2022-10-16T13:00:26.843Z,21.69
2022-10-16T13:03:34.226Z,21.74
2022-10-16T13:06:14.925Z,21.79
2022-10-16T13:09:00.036Z,21.88
2022-10-16T13:11:44.783Z,21.96
2022-10-16T13:14:27.623Z,22.02
2022-10-16T13:17:05.811Z,22.09
2022-10-16T13:19:40.932Z,22.07
2022-10-16T13:22:19.710Z,22.03
2022-10-16T13:25:05.587Z,21.98
2022-10-16T13:27:40.506Z,21.98
2022-10-16T13:30:14.633Z,22.00
2022-10-16T13:32:41.462Z,22.02
2022-10-16T13:35:20.848Z,22.01
2022-10-16T13:37:47.451Z,21.99
2022-10-16T13:40:20.812Z,21.91
2022-10-16T13:42:47.348Z,21.83
2022-10-16T13:45:21.111Z,21.79
2022-10-16T13:47:47.804Z,21.72
2022-10-16T13:50:16.732Z,21.61
2022-10-16T13:52:43.579Z,21.54
2022-10-16T13:55:12.558Z,21.50
2022-10-16T13:57:40.638Z,21.44
2022-10-16T14:00:19.384Z,21.38
2022-10-16T14:02:50.533Z,21.28
2022-10-16T14:05:17.226Z,21.18
2022-10-16T14:07:44.043Z,21.15
2022-10-16T14:10:23.657Z,21.17
2022-10-16T14:12:57.782Z,21.16
2022-10-16T14:15:24.860Z,21.15
2022-10-16T14:17:53.778Z,21.14
2022-10-16T14:20:24.526Z,21.11
2022-10-16T14:23:00.180Z,21.07
2022-10-16T14:25:29.235Z,21.04
2022-10-16T14:30:36.203Z,20.95
2022-10-16T14:33:04.709Z,20.91
2022-10-16T14:35:33.688Z,20.88
2022-10-16T14:38:02.205Z,20.84
2022-10-16T14:40:31.207Z,20.81
2022-10-16T14:43:00.142Z,20.75
2022-10-16T14:45:30.521Z,20.70
2022-10-16T14:47:59.504Z,20.65
2022-10-16T14:50:26.375Z,20.60
2022-10-16T14:52:53.066Z,20.54
2022-10-16T14:55:20.150Z,20.51
2022-10-16T14:57:47.555Z,20.47
2022-10-16T15:00:19.095Z,20.43
2022-10-16T15:02:46.912Z,20.38
2022-10-16T15:05:17.311Z,20.35
2022-10-16T15:07:43.940Z,20.31
2022-10-16T15:10:10.771Z,20.27
2022-10-16T15:12:37.513Z,20.23
2022-10-16T15:15:25.775Z,20.16
2022-10-16T15:17:52.658Z,20.10
2022-10-16T15:20:19.343Z,20.05
2022-10-16T15:22:45.936Z,20.00
2022-10-16T15:25:26.814Z,19.94
2022-10-16T15:27:53.491Z,19.86
2022-10-16T15:30:20.410Z,19.83
2022-10-16T15:32:48.516Z,19.78
2022-10-16T15:35:15.175Z,19.72
2022-10-16T15:37:41.855Z,19.67
2022-10-16T15:40:09.937Z,19.61
2022-10-16T15:42:36.665Z,19.55
2022-10-16T15:45:03.795Z,19.48
2022-10-16T15:47:30.718Z,19.41
2022-10-16T15:49:58.689Z,19.34
2022-10-16T15:52:25.812Z,19.26
2022-10-16T15:54:54.287Z,19.19
2022-10-16T15:57:21.166Z,19.12
2022-10-16T15:59:47.896Z,19.03
2022-10-16T16:02:14.711Z,18.94
2022-10-16T16:04:44.906Z,18.84
2022-10-16T16:07:13.123Z,18.77
2022-10-16T16:09:39.740Z,18.67
2022-10-16T16:12:07.149Z,18.57
2022-10-16T16:14:33.868Z,18.49
2022-10-16T16:17:00.459Z,18.40
2022-10-16T16:19:26.964Z,18.31
2022-10-16T16:21:53.568Z,18.21
2022-10-16T16:24:21.585Z,18.11
2022-10-16T16:26:48.054Z,18.01
2022-10-16T16:29:16.632Z,17.90
2022-10-16T16:31:43.603Z,17.80
2022-10-16T16:34:10.295Z,17.70
2022-10-16T16:36:36.874Z,17.60
2022-10-16T16:39:03.826Z,17.50
2022-10-16T16:41:31.830Z,17.41
2022-10-16T16:44:02.943Z,17.29
2022-10-16T16:46:29.485Z,17.20
2022-10-16T16:48:55.985Z,17.11
2022-10-16T16:51:22.595Z,17.03
2022-10-16T16:53:51.005Z,16.95
2022-10-16T16:56:18.900Z,16.87
2022-10-16T16:58:48.041Z,16.79
2022-10-16T17:01:19.964Z,16.69
2022-10-16T17:03:48.699Z,16.59
2022-10-16T17:06:15.216Z,16.51
2022-10-16T17:08:42.112Z,16.44
2022-10-16T17:11:13.661Z,16.35
2022-10-16T17:13:40.104Z,16.26
2022-10-16T17:16:08.576Z,16.19
2022-10-16T17:18:35.794Z,16.12
2022-10-16T17:21:04.315Z,16.05
2022-10-16T17:23:30.979Z,15.98
2022-10-16T17:25:57.645Z,15.92
2022-10-16T17:28:24.222Z,15.84
2022-10-16T17:30:50.907Z,15.78
2022-10-16T17:33:18.850Z,15.71
2022-10-16T17:35:47.534Z,15.65
2022-10-16T17:38:15.153Z,15.60
2022-10-16T17:40:41.697Z,15.52
2022-10-16T17:43:08.225Z,15.46
2022-10-16T17:45:37.359Z,15.40
2022-10-16T17:48:04.044Z,15.33
2022-10-16T17:50:32.183Z,15.27
2022-10-16T17:52:58.698Z,15.21
2022-10-16T17:55:27.263Z,15.16
2022-10-16T17:57:57.661Z,15.09
2022-10-16T18:00:24.119Z,15.02
2022-10-16T18:02:50.614Z,14.97
2022-10-16T18:05:17.072Z,14.91
2022-10-16T18:07:45.021Z,14.86
2022-10-16T18:10:12.231Z,14.79
2022-10-16T18:12:39.151Z,14.76
2022-10-16T18:15:06.848Z,14.71
2022-10-16T18:17:35.216Z,14.66
2022-10-16T18:20:01.725Z,14.61
2022-10-16T18:22:28.187Z,14.56
2022-10-16T18:24:56.065Z,14.52
2022-10-16T18:27:22.648Z,14.45
2022-10-16T18:29:50.632Z,14.42
2022-10-16T18:32:17.263Z,14.39
2022-10-16T18:34:43.868Z,14.35
2022-10-16T18:37:10.311Z,14.31
2022-10-16T18:39:36.964Z,14.27
2022-10-16T18:42:04.863Z,14.24
2022-10-16T18:44:31.470Z,14.19
2022-10-16T18:46:58.021Z,14.15
2022-10-16T18:49:24.909Z,14.11
2022-10-16T18:51:51.755Z,14.06
2022-10-16T18:54:18.345Z,14.04
2022-10-16T18:56:44.992Z,14.01
2022-10-16T18:59:12.814Z,13.99
2022-10-16T19:01:39.837Z,13.96
2022-10-16T19:04:08.464Z,13.95
2022-10-16T19:06:36.556Z,13.94
2022-10-16T19:09:03.898Z,13.92
2022-10-16T19:11:30.765Z,13.89
2022-10-16T19:13:58.166Z,13.86
2022-10-16T19:16:27.826Z,13.83
2022-10-16T19:18:55.962Z,13.81
2022-10-16T19:21:24.504Z,13.78
2022-10-16T19:23:52.030Z,13.75
2022-10-16T19:26:19.616Z,13.74
2022-10-16T19:28:46.627Z,13.72
2022-10-16T19:31:15.296Z,13.71
2022-10-16T19:33:43.318Z,13.70
2022-10-16T19:36:10.996Z,13.68
2022-10-16T19:38:37.544Z,13.67
2022-10-16T19:41:08.104Z,13.68
2022-10-16T19:43:34.951Z,13.68
2022-10-16T19:46:05.755Z,13.69
2022-10-16T19:48:32.788Z,13.68
2022-10-16T19:51:00.654Z,13.67
2022-10-16T19:53:27.812Z,13.67
2022-10-16T19:55:54.362Z,13.65
2022-10-16T19:58:21.204Z,13.62
2022-10-16T20:00:47.683Z,13.58
2022-10-16T20:03:14.176Z,13.57
2022-10-16T20:05:40.660Z,13.56
2022-10-16T20:08:08.534Z,13.56
2022-10-16T20:10:34.944Z,13.56
2022-10-16T20:13:01.416Z,13.54
2022-10-16T20:15:27.885Z,13.52
2022-10-16T20:17:54.354Z,13.50
2022-10-16T20:20:20.746Z,13.50
2022-10-16T20:22:47.157Z,13.50
2022-10-16T20:25:16.824Z,13.49
2022-10-16T20:27:45.453Z,13.49
2022-10-16T20:30:11.909Z,13.50
2022-10-16T20:32:38.313Z,13.50
2022-10-16T20:35:07.825Z,13.50
2022-10-16T20:37:34.535Z,13.50
2022-10-16T20:40:00.987Z,13.49
2022-10-16T20:42:28.904Z,13.48
2022-10-16T20:44:55.325Z,13.46
2022-10-16T20:47:22.374Z,13.45
2022-10-16T20:49:48.838Z,13.47
2022-10-16T20:52:15.295Z,13.48
2022-10-16T20:54:44.539Z,13.50
2022-10-16T20:57:10.975Z,13.51
2022-10-16T20:59:38.710Z,13.52
2022-10-16T21:02:05.234Z,13.52
2022-10-16T21:04:31.764Z,13.52
2022-10-16T21:06:58.207Z,13.53
2022-10-16T21:09:24.618Z,13.53
2022-10-16T21:11:51.149Z,13.52
2022-10-16T21:14:17.616Z,13.52
2022-10-16T21:16:45.396Z,13.53
2022-10-16T21:19:11.855Z,13.53
2022-10-16T21:21:38.459Z,13.55
2022-10-16T21:24:06.026Z,13.56
2022-10-16T21:26:32.502Z,13.56
2022-10-16T21:29:00.560Z,13.58
2022-10-16T21:31:27.164Z,13.58
2022-10-16T21:33:55.305Z,13.57
2022-10-16T21:36:23.641Z,13.58
2022-10-16T21:38:51.006Z,13.57
2022-10-16T21:41:19.384Z,13.56
2022-10-16T21:43:46.346Z,13.54
2022-10-16T21:46:13.294Z,13.53
2022-10-16T21:48:39.869Z,13.54
2022-10-16T21:51:07.626Z,13.52
2022-10-16T21:53:34.081Z,13.52
2022-10-16T21:56:00.707Z,13.51
2022-10-16T21:58:27.256Z,13.49
2022-10-16T22:00:53.821Z,13.47
2022-10-16T22:03:20.305Z,13.47
2022-10-16T22:05:46.767Z,13.44
2022-10-16T22:08:15.300Z,13.40
2022-10-16T22:10:41.839Z,13.36
2022-10-16T22:13:08.393Z,13.34
2022-10-16T22:15:34.854Z,13.33
2022-10-16T22:18:01.307Z,13.32
2022-10-16T22:20:27.974Z,13.31
2022-10-16T22:22:54.388Z,13.30
2022-10-16T22:25:22.143Z,13.31
2022-10-16T22:27:48.607Z,13.31
2022-10-16T22:30:15.202Z,13.30
2022-10-16T22:32:41.603Z,13.29
2022-10-16T22:35:08.822Z,13.29
2022-10-16T22:37:35.263Z,13.27
2022-10-16T22:40:01.713Z,13.25
2022-10-16T22:42:29.453Z,13.23
2022-10-16T22:44:55.918Z,13.23
2022-10-16T22:47:22.446Z,13.22
2022-10-16T22:49:48.885Z,13.23
2022-10-16T22:52:15.336Z,13.23
2022-10-16T22:54:41.782Z,13.25
2022-10-16T22:57:08.233Z,13.26
2022-10-16T22:59:36.239Z,13.29
2022-10-16T23:02:02.811Z,13.28
2022-10-16T23:04:29.215Z,13.28
2022-10-16T23:06:55.633Z,13.27
2022-10-16T23:09:22.047Z,13.25
2022-10-16T23:11:48.504Z,13.24
2022-10-16T23:14:19.721Z,13.26
2022-10-16T23:16:47.523Z,13.28
2022-10-16T23:19:13.926Z,13.31
2022-10-16T23:21:40.381Z,13.32
2022-10-16T23:24:07.146Z,13.36
2022-10-16T23:26:35.597Z,13.39
2022-10-16T23:29:02.410Z,13.42
2022-10-16T23:31:29.636Z,13.44
2022-10-16T23:33:58.504Z,13.46
2022-10-16T23:36:25.495Z,13.48
2022-10-16T23:38:52.238Z,13.50
2022-10-16T23:41:19.285Z,13.53
2022-10-16T23:43:46.028Z,13.55
2022-10-16T23:46:13.803Z,13.57
2022-10-16T23:48:40.649Z,13.58
2022-10-16T23:51:09.193Z,13.61
2022-10-16T23:53:36.118Z,13.63
2022-10-16T23:56:03.272Z,13.64
2022-10-16T23:58:30.145Z,13.65
